createdAt,value
2018-12-23T00:01:52.162Z,10.33
2018-12-23T00:04:19.767Z,11.87
2018-12-23T00:06:47.412Z,11.47
2018-12-23T00:09:15.339Z,11.27
2018-12-23T00:11:42.947Z,11.17
2018-12-23T00:14:10.586Z,11.43
2018-12-23T00:16:38.193Z,12.33
2018-12-23T00:19:05.797Z,12.00
2018-12-23T00:21:33.450Z,10.70
2018-12-23T00:24:01.058Z,11.40
2018-12-23T00:26:28.712Z,11.03
2018-12-23T00:28:56.338Z,9.07
2018-12-23T00:31:23.935Z,10.50
2018-12-23T00:33:51.535Z,10.83
2018-12-23T00:36:19.176Z,10.20
2018-12-23T00:38:46.791Z,10.60
2018-12-23T00:41:14.393Z,10.30
2018-12-23T00:43:42.024Z,11.07
2018-12-23T00:46:09.619Z,9.40
2018-12-23T00:48:37.226Z,11.03
2018-12-23T00:51:04.858Z,11.10
2018-12-23T00:53:32.461Z,10.40
2018-12-23T00:56:00.058Z,12.00
2018-12-23T00:58:27.817Z,10.83
2018-12-23T01:00:55.426Z,9.90
2018-12-23T01:03:23.022Z,10.83
2018-12-23T01:05:50.658Z,11.00
2018-12-23T01:08:18.255Z,10.93
2018-12-23T01:10:45.848Z,9.83
2018-12-23T01:13:13.496Z,10.23
2018-12-23T01:15:41.098Z,11.10
2018-12-23T01:18:08.699Z,9.53
2018-12-23T01:20:37.124Z,10.00
2018-12-23T01:23:04.733Z,9.83
2018-12-23T01:25:32.331Z,9.77
2018-12-23T01:28:00.007Z,9.93
2018-12-23T01:30:27.621Z,9.70
2018-12-23T01:32:55.315Z,9.43
2018-12-23T01:35:22.995Z,11.00
2018-12-23T01:37:50.596Z,9.77
2018-12-23T01:40:18.193Z,9.97
2018-12-23T01:42:45.832Z,10.80
2018-12-23T01:45:13.487Z,9.13
2018-12-23T01:47:41.131Z,10.00
2018-12-23T01:50:08.764Z,9.83
2018-12-23T01:52:36.360Z,10.90
2018-12-23T01:55:05.423Z,9.50
2018-12-23T01:57:33.387Z,10.63
2018-12-23T02:00:00.989Z,11.00
2018-12-23T02:02:28.594Z,8.70
2018-12-23T02:04:56.228Z,8.23
2018-12-23T02:07:23.825Z,8.97
2018-12-23T02:09:51.431Z,8.37
2018-12-23T02:12:19.352Z,10.20
2018-12-23T02:14:46.962Z,11.20
2018-12-23T02:17:14.576Z,9.87
2018-12-23T02:19:42.208Z,8.13
2018-12-23T02:22:09.812Z,9.40
2018-12-23T02:24:37.465Z,8.73
2018-12-23T02:27:05.099Z,10.03
2018-12-23T02:29:32.750Z,10.20
2018-12-23T02:32:00.354Z,9.57
2018-12-23T02:34:27.971Z,9.47
2018-12-23T02:36:55.584Z,10.00
2018-12-23T02:39:23.197Z,8.97
2018-12-23T02:41:50.835Z,10.37
2018-12-23T02:44:18.431Z,9.63
2018-12-23T02:46:46.025Z,8.33
2018-12-23T02:49:13.666Z,10.13
2018-12-23T02:51:41.275Z,11.33
2018-12-23T02:54:08.888Z,9.67
2018-12-23T02:56:36.525Z,9.67
2018-12-23T02:59:04.131Z,9.40
2018-12-23T03:01:31.794Z,10.70
2018-12-23T03:03:59.401Z,11.20
2018-12-23T03:06:26.995Z,10.43
2018-12-23T03:08:54.618Z,11.20
2018-12-23T03:11:22.229Z,10.10
2018-12-23T03:13:49.871Z,10.43
2018-12-23T03:16:17.510Z,11.13
2018-12-23T03:18:45.135Z,10.53
2018-12-23T03:21:12.762Z,10.37
2018-12-23T03:23:40.409Z,10.17
2018-12-23T03:26:08.018Z,11.40
2018-12-23T03:28:35.628Z,11.30
2018-12-23T03:31:03.260Z,10.33
2018-12-23T03:33:30.867Z,11.03
2018-12-23T03:35:58.477Z,11.17
2018-12-23T03:38:26.115Z,10.30
2018-12-23T03:40:53.719Z,10.37
2018-12-23T03:43:21.340Z,10.30
2018-12-23T03:45:48.996Z,10.90
2018-12-23T03:48:16.647Z,10.37
2018-12-23T03:50:44.256Z,10.53
2018-12-23T03:53:11.893Z,9.97
2018-12-23T03:55:39.541Z,10.23
2018-12-23T03:58:07.239Z,10.93
2018-12-23T04:00:35.700Z,11.43
2018-12-23T04:03:03.390Z,9.90
2018-12-23T04:05:30.986Z,9.50
2018-12-23T04:07:58.634Z,9.23
2018-12-23T04:10:27.082Z,9.77
2018-12-23T04:12:54.675Z,9.70
2018-12-23T04:15:22.549Z,10.13
2018-12-23T04:17:50.164Z,9.90
2018-12-23T04:20:18.333Z,9.77
2018-12-23T04:22:45.950Z,9.10
2018-12-23T04:25:13.562Z,9.10
2018-12-23T04:27:41.168Z,9.53
2018-12-23T04:30:08.803Z,9.40
2018-12-23T04:32:36.407Z,8.67
2018-12-23T04:35:04.009Z,8.80
2018-12-23T04:37:31.648Z,9.47
2018-12-23T04:39:59.250Z,8.67
2018-12-23T04:42:26.857Z,9.67
2018-12-23T04:44:54.491Z,7.77
2018-12-23T04:47:23.268Z,9.97
2018-12-23T04:49:50.867Z,10.00
2018-12-23T04:52:18.861Z,10.13
2018-12-23T04:54:46.456Z,9.33
2018-12-23T04:57:14.049Z,9.23
2018-12-23T04:59:41.681Z,9.13
2018-12-23T05:02:09.287Z,9.67
2018-12-23T05:04:36.937Z,9.47
2018-12-23T05:07:04.794Z,10.53
2018-12-23T05:09:32.395Z,11.20
2018-12-23T05:12:00.000Z,11.13
2018-12-23T05:14:27.652Z,10.17
2018-12-23T05:16:56.040Z,10.63
2018-12-23T05:19:23.654Z,10.30
2018-12-23T05:21:51.290Z,10.43
2018-12-23T05:24:18.914Z,9.57
2018-12-23T05:26:46.521Z,9.80
2018-12-23T05:29:14.145Z,10.00
2018-12-23T05:31:41.750Z,10.50
2018-12-23T05:34:09.359Z,9.67
2018-12-23T05:36:36.998Z,10.47
2018-12-23T05:39:06.065Z,10.67
2018-12-23T05:41:33.678Z,10.27
2018-12-23T05:44:01.331Z,10.80
2018-12-23T05:46:28.933Z,10.67
2018-12-23T05:48:56.544Z,11.10
2018-12-23T05:51:24.188Z,11.73
2018-12-23T05:53:51.795Z,11.37
2018-12-23T05:56:19.513Z,11.50
2018-12-23T05:58:47.182Z,11.20
2018-12-23T06:01:14.791Z,11.43
2018-12-23T06:03:42.397Z,9.90
2018-12-23T06:06:10.096Z,11.17
2018-12-23T06:08:37.706Z,11.87
2018-12-23T06:11:05.320Z,13.40
2018-12-23T06:13:32.965Z,11.53
2018-12-23T06:16:00.560Z,13.17
2018-12-23T06:18:28.175Z,13.53
2018-12-23T06:20:55.813Z,13.27
2018-12-23T06:23:23.426Z,12.87
2018-12-23T06:25:51.031Z,14.07
2018-12-23T06:28:18.662Z,14.97
2018-12-23T06:30:46.269Z,13.37
2018-12-23T06:33:13.888Z,14.97
2018-12-23T06:35:41.536Z,13.53
2018-12-23T06:38:09.143Z,13.00
2018-12-23T06:40:36.743Z,12.77
2018-12-23T06:43:04.389Z,10.70
2018-12-23T06:45:31.995Z,14.60
2018-12-23T06:47:59.597Z,11.90
2018-12-23T06:50:27.235Z,11.40
2018-12-23T06:52:54.863Z,15.07
2018-12-23T06:55:22.497Z,13.63
2018-12-23T06:57:50.495Z,15.60
2018-12-23T07:00:18.103Z,16.53
2018-12-23T07:02:45.701Z,17.90
2018-12-23T07:05:13.333Z,17.00
2018-12-23T07:07:41.007Z,16.93
2018-12-23T07:10:08.607Z,14.93
2018-12-23T07:12:36.237Z,13.50
2018-12-23T07:15:03.846Z,16.03
2018-12-23T07:17:31.458Z,16.00
2018-12-23T07:19:59.088Z,13.70
2018-12-23T07:22:26.716Z,15.63
2018-12-23T07:24:54.323Z,16.67
2018-12-23T07:27:21.961Z,13.43
2018-12-23T07:29:49.567Z,14.23
2018-12-23T07:32:17.170Z,13.07
2018-12-23T07:34:44.813Z,14.53
2018-12-23T07:37:12.426Z,16.87
2018-12-23T07:39:40.027Z,15.73
2018-12-23T07:42:07.662Z,16.07
2018-12-23T07:44:35.266Z,12.70
2018-12-23T07:47:02.878Z,15.53
2018-12-23T07:49:30.510Z,16.00
2018-12-23T07:51:58.182Z,16.23
2018-12-23T07:54:25.793Z,16.83
2018-12-23T07:56:53.428Z,14.00
2018-12-23T07:59:21.030Z,16.27
2018-12-23T08:01:48.641Z,14.77
2018-12-23T08:04:16.554Z,16.53
2018-12-23T08:06:44.162Z,16.00
2018-12-23T08:09:11.784Z,16.70
2018-12-23T08:11:39.669Z,16.97
2018-12-23T08:14:07.302Z,17.53
2018-12-23T08:16:34.917Z,17.07
2018-12-23T08:19:02.539Z,12.47
2018-12-23T08:21:30.163Z,16.30
2018-12-23T08:23:57.769Z,15.57
2018-12-23T08:26:25.404Z,18.20
2018-12-23T08:28:53.012Z,21.60
2018-12-23T08:31:20.816Z,21.07
2018-12-23T08:33:49.234Z,20.40
2018-12-23T08:36:16.869Z,18.00
2018-12-23T08:38:44.469Z,17.53
2018-12-23T08:41:12.098Z,16.60
2018-12-23T08:43:39.706Z,17.23
2018-12-23T08:46:07.311Z,17.33
2018-12-23T08:48:34.938Z,16.70
2018-12-23T08:51:02.612Z,15.70
2018-12-23T08:53:30.220Z,17.10
2018-12-23T08:55:57.848Z,19.13
2018-12-23T08:58:25.443Z,17.80
2018-12-23T09:00:53.037Z,17.97
2018-12-23T09:03:20.714Z,16.50
2018-12-23T09:05:48.416Z,14.63
2018-12-23T09:08:16.177Z,14.53
2018-12-23T09:10:43.837Z,17.50
2018-12-23T09:13:11.544Z,15.60
2018-12-23T09:15:39.151Z,15.40
2018-12-23T09:18:06.784Z,12.93
2018-12-23T09:20:34.389Z,16.27
2018-12-23T09:23:01.991Z,13.60
2018-12-23T09:25:29.627Z,14.13
2018-12-23T09:27:57.244Z,15.50
2018-12-23T09:30:24.844Z,16.10
2018-12-23T09:32:52.481Z,14.03
2018-12-23T09:35:20.082Z,15.77
2018-12-23T09:37:47.683Z,11.60
2018-12-23T09:40:15.418Z,12.47
2018-12-23T09:42:43.028Z,10.80
2018-12-23T09:45:10.637Z,13.87
2018-12-23T09:47:38.263Z,13.93
2018-12-23T09:50:07.722Z,12.87
2018-12-23T09:52:35.332Z,11.87
2018-12-23T09:55:02.977Z,13.57
2018-12-23T09:57:30.618Z,13.47
2018-12-23T09:59:58.231Z,13.87
2018-12-23T10:02:25.865Z,12.17
2018-12-23T10:04:53.465Z,13.17
2018-12-23T10:07:21.193Z,12.53
2018-12-23T10:09:48.910Z,13.80
2018-12-23T10:12:16.519Z,11.40
2018-12-23T10:14:44.126Z,13.13
2018-12-23T10:17:11.770Z,11.80
2018-12-23T10:19:39.370Z,8.47
2018-12-23T10:22:07.006Z,11.57
2018-12-23T10:24:34.643Z,12.43
2018-12-23T10:27:02.244Z,9.27
2018-12-23T10:29:29.877Z,11.43
2018-12-23T10:31:57.553Z,13.83
2018-12-23T10:34:25.155Z,9.17
2018-12-23T10:36:52.815Z,9.17
2018-12-23T10:39:20.455Z,14.30
2018-12-23T10:41:48.097Z,9.57
2018-12-23T10:44:15.707Z,10.03
2018-12-23T10:46:43.370Z,10.80
2018-12-23T10:49:11.242Z,11.17
2018-12-23T10:51:38.838Z,11.80
2018-12-23T10:54:06.489Z,10.40
2018-12-23T10:56:34.116Z,11.00
2018-12-23T10:59:01.725Z,8.97
2018-12-23T11:01:29.360Z,11.30
2018-12-23T11:03:56.969Z,10.57
2018-12-23T11:06:24.586Z,11.70
2018-12-23T11:08:52.233Z,8.30
2018-12-23T11:11:19.897Z,11.97
2018-12-23T11:13:47.539Z,13.30
2018-12-23T11:16:15.212Z,12.00
2018-12-23T11:18:42.858Z,12.43
2018-12-23T11:21:10.497Z,13.27
2018-12-23T11:23:38.128Z,12.80
2018-12-23T11:26:05.734Z,34.80
2018-12-23T11:28:33.344Z,13.20
2018-12-23T11:31:00.968Z,13.97
2018-12-23T11:33:28.599Z,12.70
2018-12-23T11:35:56.205Z,12.53
2018-12-23T11:38:23.882Z,10.57
2018-12-23T11:40:51.491Z,12.33
2018-12-23T11:43:19.123Z,13.43
2018-12-23T11:45:46.764Z,14.20
2018-12-23T11:48:14.382Z,13.07
2018-12-23T11:50:42.001Z,13.60
2018-12-23T11:53:09.646Z,12.37
2018-12-23T11:55:37.265Z,11.40
2018-12-23T11:58:04.880Z,10.30
2018-12-23T12:00:32.505Z,10.60
2018-12-23T12:03:00.112Z,13.70
2018-12-23T12:05:27.716Z,12.27
2018-12-23T12:07:55.655Z,11.77
2018-12-23T12:10:23.269Z,11.87
2018-12-23T12:12:50.897Z,11.47
2018-12-23T12:15:18.539Z,11.77
2018-12-23T12:17:46.149Z,11.70
2018-12-23T12:20:13.758Z,7.33
2018-12-23T12:22:41.434Z,8.63
2018-12-23T12:25:09.039Z,9.93
2018-12-23T12:27:36.650Z,7.83
2018-12-23T12:30:04.736Z,12.93
2018-12-23T12:32:32.341Z,10.83
2018-12-23T12:34:59.967Z,10.07
2018-12-23T12:37:27.634Z,7.93
2018-12-23T12:39:55.246Z,8.93
2018-12-23T12:42:22.854Z,8.80
2018-12-23T12:44:50.488Z,9.07
2018-12-23T12:47:18.106Z,10.40
2018-12-23T12:49:45.712Z,8.73
2018-12-23T12:52:13.342Z,9.00
2018-12-23T12:54:40.982Z,8.93
2018-12-23T12:57:08.587Z,9.90
2018-12-23T12:59:36.226Z,9.23
2018-12-23T13:02:03.841Z,9.10
2018-12-23T13:04:31.446Z,8.80
2018-12-23T13:06:59.073Z,8.87
2018-12-23T13:09:26.691Z,8.80
2018-12-23T13:11:54.311Z,6.80
2018-12-23T13:14:22.500Z,9.60
2018-12-23T13:16:50.106Z,8.87
2018-12-23T13:19:17.728Z,9.93
2018-12-23T13:21:45.452Z,8.27
2018-12-23T13:24:13.718Z,8.30
2018-12-23T13:26:41.338Z,8.53
2018-12-23T13:29:08.979Z,9.20
2018-12-23T13:31:36.607Z,8.10
2018-12-23T13:34:04.289Z,7.93
2018-12-23T13:36:31.931Z,8.63
2018-12-23T13:38:59.540Z,10.90
2018-12-23T13:41:32.029Z,9.23
2018-12-23T13:44:06.644Z,9.77
2018-12-23T13:46:41.939Z,8.43
2018-12-23T13:49:18.194Z,9.07
2018-12-23T13:51:53.751Z,8.17
2018-12-23T13:58:08.019Z,6.37
2018-12-23T14:00:48.978Z,7.53
2018-12-23T14:03:20.828Z,8.87
2018-12-23T14:06:12.718Z,8.67
2018-12-23T14:09:02.964Z,8.83
2018-12-23T14:11:51.119Z,8.10
2018-12-23T14:14:19.944Z,8.20
2018-12-23T14:16:48.635Z,8.27
2018-12-23T14:19:17.406Z,8.30
2018-12-23T14:21:46.581Z,6.93
2018-12-23T14:24:15.244Z,7.93
2018-12-23T14:26:43.996Z,8.67
2018-12-23T14:29:12.648Z,6.57
2018-12-23T14:31:41.260Z,7.83
2018-12-23T14:34:09.950Z,7.40
2018-12-23T14:36:38.674Z,7.10
2018-12-23T14:39:07.342Z,8.87
2018-12-23T14:41:36.127Z,6.90
2018-12-23T14:44:04.864Z,7.53
2018-12-23T14:46:33.634Z,7.60
2018-12-23T14:49:02.308Z,5.90
2018-12-23T14:51:31.080Z,7.40
2018-12-23T14:53:59.770Z,7.63
2018-12-23T14:56:28.441Z,6.90
2018-12-23T14:58:57.223Z,6.40
2018-12-23T15:01:25.986Z,6.40
2018-12-23T15:03:54.679Z,5.60
2018-12-23T15:06:23.381Z,6.27
2018-12-23T15:08:52.053Z,4.73
2018-12-23T15:11:20.671Z,5.90
2018-12-23T15:13:49.306Z,6.70
2018-12-23T15:16:18.034Z,6.03
2018-12-23T15:18:46.764Z,6.23
2018-12-23T15:21:15.478Z,7.53
2018-12-23T15:23:44.160Z,6.67
2018-12-23T15:26:12.836Z,7.77
2018-12-23T15:28:41.627Z,11.03
2018-12-23T15:31:11.660Z,5.27
2018-12-23T15:33:40.332Z,6.90
2018-12-23T15:36:09.353Z,7.37
2018-12-23T15:38:38.096Z,5.93
2018-12-23T15:41:06.837Z,7.17
2018-12-23T15:43:35.547Z,7.00
2018-12-23T15:46:04.211Z,4.67
2018-12-23T15:48:32.901Z,6.80
2018-12-23T15:51:07.893Z,6.57
2018-12-23T15:53:32.441Z,6.70
2018-12-23T15:56:01.101Z,6.90
2018-12-23T15:58:29.889Z,7.63
2018-12-23T16:00:58.571Z,6.30
2018-12-23T16:03:27.252Z,6.33
2018-12-23T16:05:55.959Z,6.60
2018-12-23T16:08:26.277Z,7.10
2018-12-23T16:10:56.632Z,6.27
2018-12-23T16:13:25.524Z,10.00
2018-12-23T16:15:57.332Z,6.40
2018-12-23T16:18:26.073Z,6.27
2018-12-23T16:20:57.927Z,6.53
2018-12-23T16:23:28.131Z,5.77
2018-12-23T16:25:58.881Z,7.43
2018-12-23T16:28:27.510Z,6.53
2018-12-23T16:30:56.179Z,7.17
2018-12-23T16:33:28.703Z,7.67
2018-12-23T16:35:56.883Z,5.77
2018-12-23T16:38:25.620Z,4.37
2018-12-23T16:40:54.365Z,7.27
2018-12-23T16:43:23.116Z,5.57
2018-12-23T16:45:51.872Z,6.23
2018-12-23T16:48:22.973Z,7.20
2018-12-23T16:50:51.770Z,6.97
2018-12-23T16:53:21.732Z,6.97
2018-12-23T16:55:50.399Z,5.83
2018-12-23T16:58:19.185Z,6.90
2018-12-23T17:00:47.944Z,6.20
2018-12-23T17:03:16.688Z,7.10
2018-12-23T17:05:45.406Z,6.67
2018-12-23T17:08:14.576Z,6.60
2018-12-23T17:10:43.312Z,7.10
2018-12-23T17:13:12.120Z,7.33
2018-12-23T17:15:40.863Z,6.80
2018-12-23T17:18:09.589Z,4.90
2018-12-23T17:20:44.150Z,4.80
2018-12-23T17:23:32.447Z,6.33
2018-12-23T17:26:01.163Z,6.03
2018-12-23T17:28:29.826Z,6.07
2018-12-23T17:30:58.496Z,5.10
2018-12-23T17:33:27.281Z,6.40
2018-12-23T17:35:56.041Z,6.67
2018-12-23T17:38:25.980Z,7.00
2018-12-23T17:40:54.604Z,5.73
2018-12-23T17:43:23.323Z,6.30
2018-12-23T17:45:51.914Z,5.97
2018-12-23T17:48:20.746Z,6.30
2018-12-23T17:50:49.463Z,7.83
2018-12-23T17:53:18.572Z,7.07
2018-12-23T17:55:51.138Z,6.23
2018-12-23T17:58:20.281Z,7.07
2018-12-23T18:00:49.037Z,7.43
2018-12-23T18:03:17.821Z,7.07
2018-12-23T18:05:46.525Z,7.30
2018-12-23T18:08:15.198Z,9.63
2018-12-23T18:10:43.992Z,9.03
2018-12-23T18:13:16.410Z,7.37
2018-12-23T18:15:44.709Z,8.27
2018-12-23T18:18:13.495Z,7.57
2018-12-23T18:20:42.251Z,7.07
2018-12-23T18:23:10.988Z,7.00
2018-12-23T18:25:45.504Z,8.07
2018-12-23T18:28:14.208Z,6.67
2018-12-23T18:30:43.344Z,5.70
2018-12-23T18:33:11.993Z,6.73
2018-12-23T18:35:40.742Z,5.70
2018-12-23T18:38:09.412Z,6.70
2018-12-23T18:40:38.128Z,7.17
2018-12-23T18:43:06.874Z,5.37
2018-12-23T18:45:36.004Z,6.97
2018-12-23T18:48:04.724Z,7.50
2018-12-23T18:50:33.888Z,7.00
2018-12-23T18:53:02.636Z,7.47
2018-12-23T18:55:32.524Z,6.90
2018-12-23T18:58:01.268Z,7.27
2018-12-23T19:00:30.024Z,8.07
2018-12-23T19:02:58.817Z,7.57
2018-12-23T19:05:27.497Z,7.83
2018-12-23T19:07:56.248Z,7.83
2018-12-23T19:10:28.174Z,7.73
2018-12-23T19:13:03.301Z,8.20
2018-12-23T19:15:46.944Z,8.30
2018-12-23T19:18:37.023Z,7.37
2018-12-23T19:21:08.934Z,9.37
2018-12-23T19:23:58.950Z,7.63
2018-12-23T19:26:45.539Z,8.63
2018-12-23T19:29:38.469Z,7.97
2018-12-23T19:32:28.465Z,8.27
2018-12-23T19:35:20.321Z,9.03
2018-12-23T19:38:14.827Z,6.67
2018-12-23T19:41:03.119Z,7.30
2018-12-23T19:43:54.485Z,6.60
2018-12-23T19:46:56.949Z,6.43
2018-12-23T19:49:51.144Z,7.57
2018-12-23T19:52:28.930Z,7.30
2018-12-23T19:55:02.157Z,8.60
2018-12-23T19:57:34.018Z,6.50
2018-12-23T20:00:17.746Z,7.40
2018-12-23T20:02:49.540Z,9.47
2018-12-23T20:05:39.229Z,8.10
2018-12-23T20:08:18.249Z,8.47
2018-12-23T20:10:59.477Z,7.13
2018-12-23T20:13:52.577Z,8.20
2018-12-23T20:16:40.804Z,8.47
2018-12-23T20:19:24.747Z,8.00
2018-12-23T20:22:02.841Z,8.07
2018-12-23T20:24:40.400Z,8.93
2018-12-23T20:27:28.878Z,8.27
2018-12-23T20:30:16.553Z,8.23
2018-12-23T20:33:00.370Z,8.53
2018-12-23T20:35:47.516Z,8.20
2018-12-23T20:38:51.269Z,7.33
2018-12-23T20:41:25.644Z,8.60
2018-12-23T20:44:26.378Z,8.43
2018-12-23T20:46:58.275Z,7.70
2018-12-23T20:49:35.385Z,7.83
2018-12-23T20:52:41.914Z,6.80
2018-12-23T20:55:19.992Z,7.73
2018-12-23T20:57:54.936Z,7.37
2018-12-23T21:00:45.138Z,9.33
2018-12-23T21:03:22.904Z,19.47
2018-12-23T21:06:15.455Z,85.60
2018-12-23T21:09:02.109Z,92.73
2018-12-23T21:11:37.918Z,6.37
2018-12-23T21:14:29.755Z,5.30
2018-12-23T21:17:30.178Z,6.20
2018-12-23T21:20:11.550Z,5.57
2018-12-23T21:22:43.484Z,6.07
2018-12-23T21:25:39.514Z,4.00
2018-12-23T21:28:20.153Z,4.37
2018-12-23T21:30:57.824Z,6.47
2018-12-23T21:33:44.612Z,5.73
2018-12-23T21:36:19.309Z,5.17
2018-12-23T21:39:13.776Z,6.00
2018-12-23T21:41:57.400Z,7.10
2018-12-23T21:45:04.466Z,6.83
2018-12-23T21:47:45.225Z,6.07
2018-12-23T21:50:28.982Z,6.47
2018-12-23T21:53:19.216Z,5.70
2018-12-23T21:55:54.494Z,5.60
2018-12-23T21:58:32.403Z,4.97
2018-12-23T22:01:06.930Z,5.83
2018-12-23T22:04:11.833Z,5.67
2018-12-23T22:07:01.986Z,6.13
2018-12-23T22:10:02.610Z,5.87
2018-12-23T22:12:40.574Z,6.57
2018-12-23T22:15:09.212Z,6.67
2018-12-23T22:17:37.956Z,5.03
2018-12-23T22:20:06.735Z,6.33
2018-12-23T22:22:35.427Z,6.10
2018-12-23T22:25:04.108Z,4.60
2018-12-23T22:27:32.886Z,4.37
2018-12-23T22:30:01.692Z,6.17
2018-12-23T22:32:30.402Z,5.37
2018-12-23T22:34:59.292Z,5.03
2018-12-23T22:37:28.045Z,4.80
2018-12-23T22:39:56.817Z,4.87
2018-12-23T22:42:25.634Z,4.57
2018-12-23T22:44:54.436Z,4.27
2018-12-23T22:47:23.211Z,3.60
2018-12-23T22:49:52.777Z,4.80
2018-12-23T22:52:23.064Z,5.03
2018-12-23T22:54:51.853Z,4.43
2018-12-23T22:57:20.622Z,3.83
2018-12-23T22:59:49.277Z,2.80
2018-12-23T23:02:18.033Z,3.13
2018-12-23T23:04:46.857Z,3.33
2018-12-23T23:07:15.599Z,3.30
2018-12-23T23:09:44.401Z,4.03
2018-12-23T23:12:13.219Z,2.97
2018-12-23T23:14:41.934Z,3.60
2018-12-23T23:17:10.677Z,3.50
2018-12-23T23:19:39.857Z,4.37
2018-12-23T23:22:08.531Z,3.93
2018-12-23T23:24:37.328Z,3.20
2018-12-23T23:27:06.055Z,2.60
2018-12-23T23:29:34.725Z,3.10
2018-12-23T23:32:03.528Z,2.83
2018-12-23T23:34:32.325Z,2.87
2018-12-23T23:37:01.009Z,3.17
2018-12-23T23:39:29.694Z,3.13
2018-12-23T23:41:58.778Z,2.70
2018-12-23T23:44:27.664Z,2.80
2018-12-23T23:46:56.335Z,2.90
2018-12-23T23:49:25.296Z,3.00
2018-12-23T23:51:54.012Z,3.00
2018-12-23T23:54:22.760Z,2.47
2018-12-23T23:56:51.478Z,3.50
2018-12-23T23:59:20.231Z,3.50
